sensor_id;sensor_type;location;lat;lon;timestamp;temperature;humidity
19025;DHT22;9645;51.448;6.260;2023-04-03T00:01:42;0.80;99.90
19025;DHT22;9645;51.448;6.260;2023-04-03T00:04:10;0.70;99.90
19025;DHT22;9645;51.448;6.260;2023-04-03T00:06:37;0.70;99.90
19025;DHT22;9645;51.448;6.260;2023-04-03T00:09:04;0.70;99.90
19025;DHT22;9645;51.448;6.260;2023-04-03T00:11:31;0.70;99.90
19025;DHT22;9645;51.448;6.260;2023-04-03T00:13:57;0.70;99.90
19025;DHT22;9645;51.448;6.260;2023-04-03T00:16:26;0.70;99.90
19025;DHT22;9645;51.448;6.260;2023-04-03T00:18:53;0.60;99.90
19025;DHT22;9645;51.448;6.260;2023-04-03T00:21:20;-0.70;99.90
19025;DHT22;9645;51.448;6.260;2023-04-03T00:23:47;0.50;99.90
19025;DHT22;9645;51.448;6.260;2023-04-03T00:26:13;0.50;99.90
19025;DHT22;9645;51.448;6.260;2023-04-03T00:28:40;0.50;99.90
19025;DHT22;9645;51.448;6.260;2023-04-03T00:31:07;0.40;99.90
19025;DHT22;9645;51.448;6.260;2023-04-03T00:33:36;0.40;99.90
19025;DHT22;9645;51.448;6.260;2023-04-03T00:36:07;0.40;99.90
19025;DHT22;9645;51.448;6.260;2023-04-03T00:38:34;0.40;99.90
19025;DHT22;9645;51.448;6.260;2023-04-03T00:41:01;0.40;99.90
19025;DHT22;9645;51.448;6.260;2023-04-03T00:43:29;0.40;99.90
19025;DHT22;9645;51.448;6.260;2023-04-03T00:45:56;-0.40;99.90
19025;DHT22;9645;51.448;6.260;2023-04-03T00:48:27;0.40;99.90
19025;DHT22;9645;51.448;6.260;2023-04-03T00:50:56;0.40;99.90
19025;DHT22;9645;51.448;6.260;2023-04-03T00:53:26;0.30;99.90
19025;DHT22;9645;51.448;6.260;2023-04-03T00:55:54;0.30;99.90
19025;DHT22;9645;51.448;6.260;2023-04-03T00:58:26;0.30;99.90
19025;DHT22;9645;51.448;6.260;2023-04-03T01:00:58;0.30;99.90
19025;DHT22;9645;51.448;6.260;2023-04-03T01:03:25;0.30;99.90
19025;DHT22;9645;51.448;6.260;2023-04-03T01:05:52;0.20;99.90
19025;DHT22;9645;51.448;6.260;2023-04-03T01:08:21;0.20;99.90
19025;DHT22;9645;51.448;6.260;2023-04-03T01:10:48;0.30;99.90
19025;DHT22;9645;51.448;6.260;2023-04-03T01:13:21;0.30;99.90
19025;DHT22;9645;51.448;6.260;2023-04-03T01:15:48;0.20;99.90
19025;DHT22;9645;51.448;6.260;2023-04-03T01:18:15;0.20;99.90
19025;DHT22;9645;51.448;6.260;2023-04-03T01:24:21;0.20;99.90
19025;DHT22;9645;51.448;6.260;2023-04-03T01:26:50;0.20;99.90
19025;DHT22;9645;51.448;6.260;2023-04-03T01:29:17;0.20;99.90
19025;DHT22;9645;51.448;6.260;2023-04-03T01:31:51;0.20;99.90
19025;DHT22;9645;51.448;6.260;2023-04-03T01:34:19;-1.00;99.90
19025;DHT22;9645;51.448;6.260;2023-04-03T01:36:46;0.20;99.90
19025;DHT22;9645;51.448;6.260;2023-04-03T01:39:14;0.30;99.90
19025;DHT22;9645;51.448;6.260;2023-04-03T01:41:41;0.30;99.90
19025;DHT22;9645;51.448;6.260;2023-04-03T01:44:08;0.40;99.90
19025;DHT22;9645;51.448;6.260;2023-04-03T01:46:35;0.40;99.90
19025;DHT22;9645;51.448;6.260;2023-04-03T01:49:05;0.40;99.90
19025;DHT22;9645;51.448;6.260;2023-04-03T01:51:32;0.40;99.90
19025;DHT22;9645;51.448;6.260;2023-04-03T01:53:59;0.40;99.90
19025;DHT22;9645;51.448;6.260;2023-04-03T01:56:26;0.40;99.90
19025;DHT22;9645;51.448;6.260;2023-04-03T01:58:53;0.40;99.90
19025;DHT22;9645;51.448;6.260;2023-04-03T02:01:20;0.40;99.90
19025;DHT22;9645;51.448;6.260;2023-04-03T02:03:47;0.40;99.90
19025;DHT22;9645;51.448;6.260;2023-04-03T02:06:16;0.40;99.90
19025;DHT22;9645;51.448;6.260;2023-04-03T02:08:42;0.50;99.90
19025;DHT22;9645;51.448;6.260;2023-04-03T02:11:09;0.60;99.90
19025;DHT22;9645;51.448;6.260;2023-04-03T02:13:37;0.60;99.90
19025;DHT22;9645;51.448;6.260;2023-04-03T02:16:08;0.60;99.90
19025;DHT22;9645;51.448;6.260;2023-04-03T02:18:35;0.70;99.90
19025;DHT22;9645;51.448;6.260;2023-04-03T02:21:03;0.70;99.90
19025;DHT22;9645;51.448;6.260;2023-04-03T02:23:31;0.80;99.90
19025;DHT22;9645;51.448;6.260;2023-04-03T02:26:07;0.90;99.90
19025;DHT22;9645;51.448;6.260;2023-04-03T02:28:34;0.90;99.90
19025;DHT22;9645;51.448;6.260;2023-04-03T02:31:02;0.90;99.90
19025;DHT22;9645;51.448;6.260;2023-04-03T02:33:29;0.90;99.90
19025;DHT22;9645;51.448;6.260;2023-04-03T02:35:56;0.90;99.90
19025;DHT22;9645;51.448;6.260;2023-04-03T02:38:25;0.90;99.90
19025;DHT22;9645;51.448;6.260;2023-04-03T02:40:57;0.90;99.90
19025;DHT22;9645;51.448;6.260;2023-04-03T02:43:26;0.90;99.90
19025;DHT22;9645;51.448;6.260;2023-04-03T02:45:53;0.90;99.90
19025;DHT22;9645;51.448;6.260;2023-04-03T02:48:20;0.90;99.90
19025;DHT22;9645;51.448;6.260;2023-04-03T02:50:47;0.90;99.90
19025;DHT22;9645;51.448;6.260;2023-04-03T02:53:13;0.90;99.90
19025;DHT22;9645;51.448;6.260;2023-04-03T02:55:40;0.90;99.90
19025;DHT22;9645;51.448;6.260;2023-04-03T02:58:09;0.80;99.90
19025;DHT22;9645;51.448;6.260;2023-04-03T03:00:36;0.80;99.90
19025;DHT22;9645;51.448;6.260;2023-04-03T03:03:05;0.80;99.90
19025;DHT22;9645;51.448;6.260;2023-04-03T03:05:32;0.90;99.90
19025;DHT22;9645;51.448;6.260;2023-04-03T03:07:59;0.90;99.90
19025;DHT22;9645;51.448;6.260;2023-04-03T03:10:26;0.90;99.90
19025;DHT22;9645;51.448;6.260;2023-04-03T03:12:53;1.00;99.90
19025;DHT22;9645;51.448;6.260;2023-04-03T03:15:22;0.90;99.90
19025;DHT22;9645;51.448;6.260;2023-04-03T03:17:49;0.90;99.90
19025;DHT22;9645;51.448;6.260;2023-04-03T03:20:16;0.90;99.90
19025;DHT22;9645;51.448;6.260;2023-04-03T03:22:43;0.90;99.90
19025;DHT22;9645;51.448;6.260;2023-04-03T03:25:10;0.90;99.90
19025;DHT22;9645;51.448;6.260;2023-04-03T03:27:36;1.00;99.90
19025;DHT22;9645;51.448;6.260;2023-04-03T03:30:05;1.00;99.90
19025;DHT22;9645;51.448;6.260;2023-04-03T03:32:33;0.90;99.90
19025;DHT22;9645;51.448;6.260;2023-04-03T03:35:00;0.80;99.90
19025;DHT22;9645;51.448;6.260;2023-04-03T03:37:27;0.80;99.90
19025;DHT22;9645;51.448;6.260;2023-04-03T03:39:55;0.80;99.90
19025;DHT22;9645;51.448;6.260;2023-04-03T03:42:22;0.80;99.90
19025;DHT22;9645;51.448;6.260;2023-04-03T03:44:49;0.80;99.90
19025;DHT22;9645;51.448;6.260;2023-04-03T03:47:17;0.80;99.90
19025;DHT22;9645;51.448;6.260;2023-04-03T03:49:45;0.80;99.90
19025;DHT22;9645;51.448;6.260;2023-04-03T03:52:12;0.90;99.90
19025;DHT22;9645;51.448;6.260;2023-04-03T03:54:39;0.90;99.90
19025;DHT22;9645;51.448;6.260;2023-04-03T03:57:06;0.90;99.90
19025;DHT22;9645;51.448;6.260;2023-04-03T03:59:33;0.80;99.90
19025;DHT22;9645;51.448;6.260;2023-04-03T04:02:00;0.80;99.90
19025;DHT22;9645;51.448;6.260;2023-04-03T04:04:27;0.70;99.90
19025;DHT22;9645;51.448;6.260;2023-04-03T04:06:56;0.70;99.90
19025;DHT22;9645;51.448;6.260;2023-04-03T04:09:23;0.70;99.90
19025;DHT22;9645;51.448;6.260;2023-04-03T04:11:49;0.70;99.90
19025;DHT22;9645;51.448;6.260;2023-04-03T04:14:16;0.70;99.90
19025;DHT22;9645;51.448;6.260;2023-04-03T04:16:46;0.70;99.90
19025;DHT22;9645;51.448;6.260;2023-04-03T04:19:13;0.80;99.90
19025;DHT22;9645;51.448;6.260;2023-04-03T04:21:40;0.80;99.90
19025;DHT22;9645;51.448;6.260;2023-04-03T04:24:09;0.70;99.90
19025;DHT22;9645;51.448;6.260;2023-04-03T04:26:36;0.70;99.90
19025;DHT22;9645;51.448;6.260;2023-04-03T04:29:03;0.70;99.90
19025;DHT22;9645;51.448;6.260;2023-04-03T04:31:30;0.70;99.90
19025;DHT22;9645;51.448;6.260;2023-04-03T04:33:57;0.70;99.90
19025;DHT22;9645;51.448;6.260;2023-04-03T04:36:25;0.70;99.90
19025;DHT22;9645;51.448;6.260;2023-04-03T04:38:52;0.70;99.90
19025;DHT22;9645;51.448;6.260;2023-04-03T04:41:21;0.60;99.90
19025;DHT22;9645;51.448;6.260;2023-04-03T04:43:48;0.60;99.90
19025;DHT22;9645;51.448;6.260;2023-04-03T04:46:16;0.50;99.90
19025;DHT22;9645;51.448;6.260;2023-04-03T04:48:43;0.60;99.90
19025;DHT22;9645;51.448;6.260;2023-04-03T04:51:11;0.50;99.90
19025;DHT22;9645;51.448;6.260;2023-04-03T04:53:38;0.40;99.90
19025;DHT22;9645;51.448;6.260;2023-04-03T04:56:05;0.50;99.90
19025;DHT22;9645;51.448;6.260;2023-04-03T04:58:33;0.40;99.90
19025;DHT22;9645;51.448;6.260;2023-04-03T05:01:01;0.40;99.90
19025;DHT22;9645;51.448;6.260;2023-04-03T05:03:29;0.40;99.90
19025;DHT22;9645;51.448;6.260;2023-04-03T05:05:56;0.40;99.90
19025;DHT22;9645;51.448;6.260;2023-04-03T05:08:23;0.40;99.90
19025;DHT22;9645;51.448;6.260;2023-04-03T05:10:50;0.30;99.90
19025;DHT22;9645;51.448;6.260;2023-04-03T05:13:17;0.30;99.90
19025;DHT22;9645;51.448;6.260;2023-04-03T05:15:46;0.30;99.90
19025;DHT22;9645;51.448;6.260;2023-04-03T05:18:13;0.30;99.90
19025;DHT22;9645;51.448;6.260;2023-04-03T05:20:40;0.30;99.90
19025;DHT22;9645;51.448;6.260;2023-04-03T05:23:09;0.20;99.90
19025;DHT22;9645;51.448;6.260;2023-04-03T05:25:37;0.20;99.90
19025;DHT22;9645;51.448;6.260;2023-04-03T05:28:04;0.30;99.90
19025;DHT22;9645;51.448;6.260;2023-04-03T05:30:31;0.40;99.90
19025;DHT22;9645;51.448;6.260;2023-04-03T05:33:00;0.50;99.90
19025;DHT22;9645;51.448;6.260;2023-04-03T05:35:27;0.50;99.90
19025;DHT22;9645;51.448;6.260;2023-04-03T05:37:54;0.50;99.90
19025;DHT22;9645;51.448;6.260;2023-04-03T05:40:21;0.60;99.90
19025;DHT22;9645;51.448;6.260;2023-04-03T05:42:48;0.80;99.90
19025;DHT22;9645;51.448;6.260;2023-04-03T05:45:15;0.80;99.90
19025;DHT22;9645;51.448;6.260;2023-04-03T05:47:42;0.90;99.90
19025;DHT22;9645;51.448;6.260;2023-04-03T05:50:11;0.90;99.90
19025;DHT22;9645;51.448;6.260;2023-04-03T05:52:41;0.90;99.90
19025;DHT22;9645;51.448;6.260;2023-04-03T05:55:09;0.90;99.90
19025;DHT22;9645;51.448;6.260;2023-04-03T05:57:36;1.00;99.90
19025;DHT22;9645;51.448;6.260;2023-04-03T06:00:03;1.00;99.90
19025;DHT22;9645;51.448;6.260;2023-04-03T06:02:31;1.10;99.90
19025;DHT22;9645;51.448;6.260;2023-04-03T06:04:58;2.30;99.90
19025;DHT22;9645;51.448;6.260;2023-04-03T06:07:27;4.40;99.90
19025;DHT22;9645;51.448;6.260;2023-04-03T06:09:55;6.10;99.90
19025;DHT22;9645;51.448;6.260;2023-04-03T06:12:23;6.80;99.90
19025;DHT22;9645;51.448;6.260;2023-04-03T06:14:50;6.40;99.90
19025;DHT22;9645;51.448;6.260;2023-04-03T06:17:18;5.60;99.90
19025;DHT22;9645;51.448;6.260;2023-04-03T06:19:45;4.90;99.90
19025;DHT22;9645;51.448;6.260;2023-04-03T06:22:13;4.20;99.90
19025;DHT22;9645;51.448;6.260;2023-04-03T06:24:41;3.80;99.90
19025;DHT22;9645;51.448;6.260;2023-04-03T06:27:10;3.50;99.90
19025;DHT22;9645;51.448;6.260;2023-04-03T06:29:37;3.40;99.90
19025;DHT22;9645;51.448;6.260;2023-04-03T06:32:05;3.40;99.90
19025;DHT22;9645;51.448;6.260;2023-04-03T06:34:32;3.30;99.90
19025;DHT22;9645;51.448;6.260;2023-04-03T06:36:59;3.30;99.90
19025;DHT22;9645;51.448;6.260;2023-04-03T06:39:26;3.40;99.90
19025;DHT22;9645;51.448;6.260;2023-04-03T06:41:55;3.40;99.90
19025;DHT22;9645;51.448;6.260;2023-04-03T06:44:22;3.40;99.90
19025;DHT22;9645;51.448;6.260;2023-04-03T06:46:49;3.50;99.90
19025;DHT22;9645;51.448;6.260;2023-04-03T06:49:17;3.50;99.90
19025;DHT22;9645;51.448;6.260;2023-04-03T06:51:44;3.50;99.90
19025;DHT22;9645;51.448;6.260;2023-04-03T06:54:11;3.60;99.90
19025;DHT22;9645;51.448;6.260;2023-04-03T06:56:38;3.70;99.90
19025;DHT22;9645;51.448;6.260;2023-04-03T06:59:06;3.70;99.90
19025;DHT22;9645;51.448;6.260;2023-04-03T07:01:34;3.70;99.90
19025;DHT22;9645;51.448;6.260;2023-04-03T07:04:01;3.80;99.90
19025;DHT22;9645;51.448;6.260;2023-04-03T07:06:28;4.10;99.90
19025;DHT22;9645;51.448;6.260;2023-04-03T07:08:56;4.30;99.90
19025;DHT22;9645;51.448;6.260;2023-04-03T07:11:23;5.40;99.90
19025;DHT22;9645;51.448;6.260;2023-04-03T07:13:51;9.20;99.90
19025;DHT22;9645;51.448;6.260;2023-04-03T07:16:20;12.00;99.90
19025;DHT22;9645;51.448;6.260;2023-04-03T07:18:47;12.70;99.90
19025;DHT22;9645;51.448;6.260;2023-04-03T07:21:14;14.60;99.90
19025;DHT22;9645;51.448;6.260;2023-04-03T07:23:41;15.00;99.90
19025;DHT22;9645;51.448;6.260;2023-04-03T07:26:08;15.80;99.90
19025;DHT22;9645;51.448;6.260;2023-04-03T07:28:35;16.30;99.90
19025;DHT22;9645;51.448;6.260;2023-04-03T07:31:04;16.70;99.90
19025;DHT22;9645;51.448;6.260;2023-04-03T07:33:33;18.10;99.90
19025;DHT22;9645;51.448;6.260;2023-04-03T07:36:01;18.50;99.90
19025;DHT22;9645;51.448;6.260;2023-04-03T07:38:28;18.80;99.90
19025;DHT22;9645;51.448;6.260;2023-04-03T07:40:55;18.80;99.90
19025;DHT22;9645;51.448;6.260;2023-04-03T07:43:22;18.60;99.90
19025;DHT22;9645;51.448;6.260;2023-04-03T07:45:50;18.70;99.90
19025;DHT22;9645;51.448;6.260;2023-04-03T07:48:17;18.30;99.90
19025;DHT22;9645;51.448;6.260;2023-04-03T07:51:00;18.70;99.90
19025;DHT22;9645;51.448;6.260;2023-04-03T08:28:01;21.80;99.90
19025;DHT22;9645;51.448;6.260;2023-04-03T08:30:29;22.50;99.90
19025;DHT22;9645;51.448;6.260;2023-04-03T08:32:56;23.20;99.90
19025;DHT22;9645;51.448;6.260;2023-04-03T08:35:23;23.50;99.90
19025;DHT22;9645;51.448;6.260;2023-04-03T08:37:50;23.70;99.90
19025;DHT22;9645;51.448;6.260;2023-04-03T08:40:17;23.50;99.90
19025;DHT22;9645;51.448;6.260;2023-04-03T08:42:52;23.20;99.90
19025;DHT22;9645;51.448;6.260;2023-04-03T08:45:27;23.40;99.90
19025;DHT22;9645;51.448;6.260;2023-04-03T08:48:04;23.20;99.90
19025;DHT22;9645;51.448;6.260;2023-04-03T08:50:37;23.70;99.90
19025;DHT22;9645;51.448;6.260;2023-04-03T08:53:13;23.60;99.90
19025;DHT22;9645;51.448;6.260;2023-04-03T08:55:44;24.00;99.90
19025;DHT22;9645;51.448;6.260;2023-04-03T08:58:15;24.70;99.90
19025;DHT22;9645;51.448;6.260;2023-04-03T09:00:46;24.80;99.90
19025;DHT22;9645;51.448;6.260;2023-04-03T09:03:15;24.80;99.90
19025;DHT22;9645;51.448;6.260;2023-04-03T09:05:46;24.70;99.90
19025;DHT22;9645;51.448;6.260;2023-04-03T09:08:21;24.80;99.90
19025;DHT22;9645;51.448;6.260;2023-04-03T09:10:49;24.50;99.90
19025;DHT22;9645;51.448;6.260;2023-04-03T09:13:26;24.90;99.90
19025;DHT22;9645;51.448;6.260;2023-04-03T09:15:56;23.20;99.90
19025;DHT22;9645;51.448;6.260;2023-04-03T09:18:28;23.60;99.90
19025;DHT22;9645;51.448;6.260;2023-04-03T09:21:02;23.90;99.90
19025;DHT22;9645;51.448;6.260;2023-04-03T09:23:36;24.30;99.90
19025;DHT22;9645;51.448;6.260;2023-04-03T09:26:11;24.50;99.90
19025;DHT22;9645;51.448;6.260;2023-04-03T09:28:42;24.40;99.90
19025;DHT22;9645;51.448;6.260;2023-04-03T09:31:18;23.90;99.90
19025;DHT22;9645;51.448;6.260;2023-04-03T09:33:47;23.60;99.90
19025;DHT22;9645;51.448;6.260;2023-04-03T09:36:37;24.50;99.90
19025;DHT22;9645;51.448;6.260;2023-04-03T09:39:05;24.90;99.90
19025;DHT22;9645;51.448;6.260;2023-04-03T09:41:33;24.30;99.90
19025;DHT22;9645;51.448;6.260;2023-04-03T09:44:01;24.00;99.90
19025;DHT22;9645;51.448;6.260;2023-04-03T09:46:31;23.30;99.90
19025;DHT22;9645;51.448;6.260;2023-04-03T09:48:59;23.80;99.90
19025;DHT22;9645;51.448;6.260;2023-04-03T09:51:26;23.10;99.90
19025;DHT22;9645;51.448;6.260;2023-04-03T09:53:54;22.50;99.90
19025;DHT22;9645;51.448;6.260;2023-04-03T09:56:24;22.60;99.90
19025;DHT22;9645;51.448;6.260;2023-04-03T09:59:08;23.60;99.90
19025;DHT22;9645;51.448;6.260;2023-04-03T10:01:42;23.20;99.90
19025;DHT22;9645;51.448;6.260;2023-04-03T10:04:11;23.80;99.90
19025;DHT22;9645;51.448;6.260;2023-04-03T10:06:39;23.30;99.90
19025;DHT22;9645;51.448;6.260;2023-04-03T10:09:18;22.90;99.90
19025;DHT22;9645;51.448;6.260;2023-04-03T10:12:00;22.80;99.90
19025;DHT22;9645;51.448;6.260;2023-04-03T10:14:32;23.20;99.90
19025;DHT22;9645;51.448;6.260;2023-04-03T10:17:09;23.60;99.90
19025;DHT22;9645;51.448;6.260;2023-04-03T10:19:42;24.20;99.90
19025;DHT22;9645;51.448;6.260;2023-04-03T10:22:18;23.70;99.90
19025;DHT22;9645;51.448;6.260;2023-04-03T10:24:55;23.70;99.90
19025;DHT22;9645;51.448;6.260;2023-04-03T10:27:32;22.80;99.90
19025;DHT22;9645;51.448;6.260;2023-04-03T10:30:19;22.00;99.90
19025;DHT22;9645;51.448;6.260;2023-04-03T10:32:55;22.20;99.90
19025;DHT22;9645;51.448;6.260;2023-04-03T10:35:34;22.70;99.90
19025;DHT22;9645;51.448;6.260;2023-04-03T10:38:08;22.80;99.90
19025;DHT22;9645;51.448;6.260;2023-04-03T10:40:43;23.20;99.90
19025;DHT22;9645;51.448;6.260;2023-04-03T10:43:17;22.70;99.90
19025;DHT22;9645;51.448;6.260;2023-04-03T10:45:56;22.00;99.90
19025;DHT22;9645;51.448;6.260;2023-04-03T10:48:43;22.30;99.90
19025;DHT22;9645;51.448;6.260;2023-04-03T10:51:22;21.60;99.90
19025;DHT22;9645;51.448;6.260;2023-04-03T10:53:56;20.90;99.90
19025;DHT22;9645;51.448;6.260;2023-04-03T10:56:31;21.10;99.90
19025;DHT22;9645;51.448;6.260;2023-04-03T10:59:05;21.80;99.90
19025;DHT22;9645;51.448;6.260;2023-04-03T11:01:38;22.00;99.90
19025;DHT22;9645;51.448;6.260;2023-04-03T11:04:07;22.70;99.90
19025;DHT22;9645;51.448;6.260;2023-04-03T11:06:39;22.90;99.90
19025;DHT22;9645;51.448;6.260;2023-04-03T11:09:15;22.30;99.90
19025;DHT22;9645;51.448;6.260;2023-04-03T11:11:47;21.70;99.90
19025;DHT22;9645;51.448;6.260;2023-04-03T11:14:26;22.20;99.90
19025;DHT22;9645;51.448;6.260;2023-04-03T11:17:04;22.30;99.90
19025;DHT22;9645;51.448;6.260;2023-04-03T11:19:36;22.00;99.90
19025;DHT22;9645;51.448;6.260;2023-04-03T11:22:12;21.60;99.90
19025;DHT22;9645;51.448;6.260;2023-04-03T11:24:43;21.80;99.90
19025;DHT22;9645;51.448;6.260;2023-04-03T11:27:17;20.90;99.90
19025;DHT22;9645;51.448;6.260;2023-04-03T11:29:49;20.60;99.90
19025;DHT22;9645;51.448;6.260;2023-04-03T11:32:48;20.50;99.90
19025;DHT22;9645;51.448;6.260;2023-04-03T11:35:19;19.70;99.90
19025;DHT22;9645;51.448;6.260;2023-04-03T11:37:49;18.90;99.90
19025;DHT22;9645;51.448;6.260;2023-04-03T11:40:23;19.10;99.90
19025;DHT22;9645;51.448;6.260;2023-04-03T11:42:53;18.50;99.90
19025;DHT22;9645;51.448;6.260;2023-04-03T11:45:31;17.20;99.90
19025;DHT22;9645;51.448;6.260;2023-04-03T11:48:02;16.40;99.90
19025;DHT22;9645;51.448;6.260;2023-04-03T11:50:47;15.70;99.90
19025;DHT22;9645;51.448;6.260;2023-04-03T11:53:35;15.50;99.90
19025;DHT22;9645;51.448;6.260;2023-04-03T11:59:23;15.60;99.90
19025;DHT22;9645;51.448;6.260;2023-04-03T12:01:51;15.10;99.90
19025;DHT22;9645;51.448;6.260;2023-04-03T12:04:21;15.70;99.90
19025;DHT22;9645;51.448;6.260;2023-04-03T12:07:11;15.30;99.90
19025;DHT22;9645;51.448;6.260;2023-04-03T12:10:01;14.70;99.90
19025;DHT22;9645;51.448;6.260;2023-04-03T12:12:35;14.60;99.90
19025;DHT22;9645;51.448;6.260;2023-04-03T12:21:17;14.00;99.90
19025;DHT22;9645;51.448;6.260;2023-04-03T12:24:16;14.80;99.90
19025;DHT22;9645;51.448;6.260;2023-04-03T12:26:51;15.00;99.90
19025;DHT22;9645;51.448;6.260;2023-04-03T12:29:33;14.60;99.90
19025;DHT22;9645;51.448;6.260;2023-04-03T12:32:13;14.30;99.90
19025;DHT22;9645;51.448;6.260;2023-04-03T12:34:53;13.70;99.90
19025;DHT22;9645;51.448;6.260;2023-04-03T12:37:38;13.70;99.90
19025;DHT22;9645;51.448;6.260;2023-04-03T12:40:23;13.70;99.90
19025;DHT22;9645;51.448;6.260;2023-04-03T12:45:45;13.00;99.90
19025;DHT22;9645;51.448;6.260;2023-04-03T12:48:17;13.40;99.90
19025;DHT22;9645;51.448;6.260;2023-04-03T12:50:46;13.70;99.90
19025;DHT22;9645;51.448;6.260;2023-04-03T12:53:16;13.60;99.90
19025;DHT22;9645;51.448;6.260;2023-04-03T12:55:44;13.50;99.90
19025;DHT22;9645;51.448;6.260;2023-04-03T12:58:17;13.20;99.90
19025;DHT22;9645;51.448;6.260;2023-04-03T13:00:59;13.10;99.90
19025;DHT22;9645;51.448;6.260;2023-04-03T13:03:28;12.70;99.90
19025;DHT22;9645;51.448;6.260;2023-04-03T13:05:59;12.80;99.90
19025;DHT22;9645;51.448;6.260;2023-04-03T13:08:27;13.20;99.90
19025;DHT22;9645;51.448;6.260;2023-04-03T13:10:59;13.40;99.90
19025;DHT22;9645;51.448;6.260;2023-04-03T13:13:28;13.20;99.90
19025;DHT22;9645;51.448;6.260;2023-04-03T13:15:55;13.60;99.90
19025;DHT22;9645;51.448;6.260;2023-04-03T13:18:24;13.70;99.90
19025;DHT22;9645;51.448;6.260;2023-04-03T13:20:54;13.50;99.90
19025;DHT22;9645;51.448;6.260;2023-04-03T13:23:23;13.10;99.90
19025;DHT22;9645;51.448;6.260;2023-04-03T13:25:51;13.00;99.90
19025;DHT22;9645;51.448;6.260;2023-04-03T13:28:21;13.10;99.90
19025;DHT22;9645;51.448;6.260;2023-04-03T13:31:05;13.00;99.90
19025;DHT22;9645;51.448;6.260;2023-04-03T13:33:36;13.10;99.90
19025;DHT22;9645;51.448;6.260;2023-04-03T13:36:08;13.40;99.90
19025;DHT22;9645;51.448;6.260;2023-04-03T13:38:42;13.50;99.90
19025;DHT22;9645;51.448;6.260;2023-04-03T13:41:25;12.40;99.90
19025;DHT22;9645;51.448;6.260;2023-04-03T13:43:52;13.10;99.90
19025;DHT22;9645;51.448;6.260;2023-04-03T13:46:26;13.10;99.90
19025;DHT22;9645;51.448;6.260;2023-04-03T13:48:56;12.90;99.90
19025;DHT22;9645;51.448;6.260;2023-04-03T13:51:26;13.00;99.90
19025;DHT22;9645;51.448;6.260;2023-04-03T13:53:56;13.00;99.90
19025;DHT22;9645;51.448;6.260;2023-04-03T13:56:26;13.40;99.90
19025;DHT22;9645;51.448;6.260;2023-04-03T13:58:59;13.50;99.90
19025;DHT22;9645;51.448;6.260;2023-04-03T14:01:35;13.30;99.90
19025;DHT22;9645;51.448;6.260;2023-04-03T14:04:12;13.10;99.90
19025;DHT22;9645;51.448;6.260;2023-04-03T14:06:41;13.40;99.90
19025;DHT22;9645;51.448;6.260;2023-04-03T14:09:08;13.10;99.90
19025;DHT22;9645;51.448;6.260;2023-04-03T14:11:35;12.80;99.90
19025;DHT22;9645;51.448;6.260;2023-04-03T14:14:09;12.70;99.90
19025;DHT22;9645;51.448;6.260;2023-04-03T14:16:39;12.50;99.90
19025;DHT22;9645;51.448;6.260;2023-04-03T14:19:07;12.40;99.90
19025;DHT22;9645;51.448;6.260;2023-04-03T14:21:42;12.50;99.90
19025;DHT22;9645;51.448;6.260;2023-04-03T14:24:09;12.60;99.90
19025;DHT22;9645;51.448;6.260;2023-04-03T14:26:37;12.40;99.90
19025;DHT22;9645;51.448;6.260;2023-04-03T14:29:03;12.30;99.90
19025;DHT22;9645;51.448;6.260;2023-04-03T14:31:31;12.40;99.90
19025;DHT22;9645;51.448;6.260;2023-04-03T14:33:58;12.50;99.90
19025;DHT22;9645;51.448;6.260;2023-04-03T14:36:28;12.50;99.90
19025;DHT22;9645;51.448;6.260;2023-04-03T14:39:00;12.70;99.90
19025;DHT22;9645;51.448;6.260;2023-04-03T14:41:28;12.70;99.90
19025;DHT22;9645;51.448;6.260;2023-04-03T14:43:55;12.50;99.90
19025;DHT22;9645;51.448;6.260;2023-04-03T14:46:26;12.20;99.90
19025;DHT22;9645;51.448;6.260;2023-04-03T14:48:55;12.00;99.90
19025;DHT22;9645;51.448;6.260;2023-04-03T14:51:22;12.10;99.90
19025;DHT22;9645;51.448;6.260;2023-04-03T14:53:50;12.10;99.90
19025;DHT22;9645;51.448;6.260;2023-04-03T14:56:21;12.10;99.90
19025;DHT22;9645;51.448;6.260;2023-04-03T14:58:49;11.80;99.90
19025;DHT22;9645;51.448;6.260;2023-04-03T15:01:20;11.80;99.90
19025;DHT22;9645;51.448;6.260;2023-04-03T15:03:47;11.70;99.90
19025;DHT22;9645;51.448;6.260;2023-04-03T15:06:15;11.70;99.90
19025;DHT22;9645;51.448;6.260;2023-04-03T15:08:43;11.60;99.90
19025;DHT22;9645;51.448;6.260;2023-04-03T15:11:10;11.30;99.90
19025;DHT22;9645;51.448;6.260;2023-04-03T15:13:40;11.40;99.90
19025;DHT22;9645;51.448;6.260;2023-04-03T15:16:14;11.60;99.90
19025;DHT22;9645;51.448;6.260;2023-04-03T15:18:42;11.60;99.90
19025;DHT22;9645;51.448;6.260;2023-04-03T15:21:10;11.60;99.90
19025;DHT22;9645;51.448;6.260;2023-04-03T15:23:37;11.40;99.90
19025;DHT22;9645;51.448;6.260;2023-04-03T15:26:04;12.20;99.90
19025;DHT22;9645;51.448;6.260;2023-04-03T15:28:34;12.60;99.90
19025;DHT22;9645;51.448;6.260;2023-04-03T15:31:04;12.60;99.90
19025;DHT22;9645;51.448;6.260;2023-04-03T15:33:31;12.10;99.90
19025;DHT22;9645;51.448;6.260;2023-04-03T15:35:58;11.80;99.90
19025;DHT22;9645;51.448;6.260;2023-04-03T15:38:25;11.60;99.90
19025;DHT22;9645;51.448;6.260;2023-04-03T15:40:53;11.60;99.90
19025;DHT22;9645;51.448;6.260;2023-04-03T15:43:21;11.30;99.90
19025;DHT22;9645;51.448;6.260;2023-04-03T15:45:49;11.10;99.90
19025;DHT22;9645;51.448;6.260;2023-04-03T15:48:18;11.20;99.90
19025;DHT22;9645;51.448;6.260;2023-04-03T15:50:45;11.10;99.90
19025;DHT22;9645;51.448;6.260;2023-04-03T15:53:12;11.00;99.90
19025;DHT22;9645;51.448;6.260;2023-04-03T15:55:39;10.90;99.90
19025;DHT22;9645;51.448;6.260;2023-04-03T15:58:06;10.90;99.90
19025;DHT22;9645;51.448;6.260;2023-04-03T16:00:35;10.90;99.90
19025;DHT22;9645;51.448;6.260;2023-04-03T16:03:07;10.90;99.90
19025;DHT22;9645;51.448;6.260;2023-04-03T16:05:37;11.00;99.90
19025;DHT22;9645;51.448;6.260;2023-04-03T16:08:05;10.90;99.90
19025;DHT22;9645;51.448;6.260;2023-04-03T16:10:33;10.90;99.90
19025;DHT22;9645;51.448;6.260;2023-04-03T16:13:00;10.80;99.90
19025;DHT22;9645;51.448;6.260;2023-04-03T16:15:28;10.60;99.90
19025;DHT22;9645;51.448;6.260;2023-04-03T16:17:56;10.60;99.90
19025;DHT22;9645;51.448;6.260;2023-04-03T16:20:24;10.50;99.90
19025;DHT22;9645;51.448;6.260;2023-04-03T16:22:53;10.30;99.90
19025;DHT22;9645;51.448;6.260;2023-04-03T16:25:21;10.30;99.90
19025;DHT22;9645;51.448;6.260;2023-04-03T16:27:48;10.30;99.90
19025;DHT22;9645;51.448;6.260;2023-04-03T16:30:14;10.30;99.90
19025;DHT22;9645;51.448;6.260;2023-04-03T16:32:42;10.20;99.90
19025;DHT22;9645;51.448;6.260;2023-04-03T16:35:09;10.20;99.90
19025;DHT22;9645;51.448;6.260;2023-04-03T16:37:37;10.20;99.90
19025;DHT22;9645;51.448;6.260;2023-04-03T16:40:07;10.10;99.90
19025;DHT22;9645;51.448;6.260;2023-04-03T16:42:34;9.90;99.90
19025;DHT22;9645;51.448;6.260;2023-04-03T16:45:01;9.70;99.90
19025;DHT22;9645;51.448;6.260;2023-04-03T16:47:29;9.60;99.90
19025;DHT22;9645;51.448;6.260;2023-04-03T16:49:56;9.50;99.90
19025;DHT22;9645;51.448;6.260;2023-04-03T16:52:23;9.50;99.90
19025;DHT22;9645;51.448;6.260;2023-04-03T16:54:50;9.40;99.90
19025;DHT22;9645;51.448;6.260;2023-04-03T16:57:22;9.40;99.90
19025;DHT22;9645;51.448;6.260;2023-04-03T16:59:50;9.20;99.90